Farmville, Arkansas
Current Conditions -  °F | °C
As of 4:53 AM on Monday 22 Dec 2014 (Local Time) from KLLQ Reporting Station
Haze Haze  
Wind Chill: 45°   Ceiling: 200
Heat Index: 49°   Visibility: 1.7mi
Dew Point: 47°   Wind: 8mph
Humidity: 93%   Direction: 160°SSE
Pressure: 29.8"   Gusts: NA
Location:  33.6176°N, 92.1466°W
Report Text: KLLQ 221053Z AUTO 16007KT 1 3/4SM BR OVC002 09/08 A2980 RMK AO2 SLP092 T00940083
Loading
Personal Weather Stations






























Interactive Weather Map New forecast layout! Learn more

10-Day Weather Forecast

Advertisements
Track Severe Weather on mobile